sensor_id;sensor_type;location;lat;lon;timestamp;P1;durP1;ratioP1;P2;durP2;ratioP2
74528;SDS011;63009;52.584;5.932;2022-11-20T00:01:06;20.35;;;10.32;;
74528;SDS011;63009;52.584;5.932;2022-11-20T00:03:32;21.58;;;10.82;;
74528;SDS011;63009;52.584;5.932;2022-11-20T00:06:02;21.08;;;10.40;;
74528;SDS011;63009;52.584;5.932;2022-11-20T00:08:28;19.73;;;10.07;;
74528;SDS011;63009;52.584;5.932;2022-11-20T00:10:54;22.13;;;10.23;;
74528;SDS011;63009;52.584;5.932;2022-11-20T00:13:19;22.53;;;11.07;;
74528;SDS011;63009;52.584;5.932;2022-11-20T00:15:44;20.07;;;10.90;;
74528;SDS011;63009;52.584;5.932;2022-11-20T00:18:10;24.50;;;12.37;;
74528;SDS011;63009;52.584;5.932;2022-11-20T00:20:35;19.13;;;10.52;;
74528;SDS011;63009;52.584;5.932;2022-11-20T00:23:00;23.07;;;9.97;;
74528;SDS011;63009;52.584;5.932;2022-11-20T00:25:25;25.73;;;11.90;;
74528;SDS011;63009;52.584;5.932;2022-11-20T00:27:51;27.40;;;12.87;;
74528;SDS011;63009;52.584;5.932;2022-11-20T00:30:16;32.00;;;13.80;;
74528;SDS011;63009;52.584;5.932;2022-11-20T00:32:41;30.35;;;14.38;;
74528;SDS011;63009;52.584;5.932;2022-11-20T00:35:07;26.40;;;12.43;;
74528;SDS011;63009;52.584;5.932;2022-11-20T00:37:32;29.95;;;13.45;;
74528;SDS011;63009;52.584;5.932;2022-11-20T00:39:57;28.40;;;12.52;;
74528;SDS011;63009;52.584;5.932;2022-11-20T00:42:22;29.50;;;13.13;;
74528;SDS011;63009;52.584;5.932;2022-11-20T00:44:48;27.33;;;11.43;;
74528;SDS011;63009;52.584;5.932;2022-11-20T00:47:13;26.67;;;13.00;;
74528;SDS011;63009;52.584;5.932;2022-11-20T00:49:38;25.87;;;12.87;;
74528;SDS011;63009;52.584;5.932;2022-11-20T00:52:04;24.67;;;11.57;;
74528;SDS011;63009;52.584;5.932;2022-11-20T00:54:29;25.48;;;11.77;;
74528;SDS011;63009;52.584;5.932;2022-11-20T00:56:54;22.10;;;10.97;;
74528;SDS011;63009;52.584;5.932;2022-11-20T00:59:20;23.73;;;11.55;;
74528;SDS011;63009;52.584;5.932;2022-11-20T01:01:45;23.87;;;10.13;;
74528;SDS011;63009;52.584;5.932;2022-11-20T01:04:10;25.02;;;11.27;;
74528;SDS011;63009;52.584;5.932;2022-11-20T01:06:37;20.37;;;9.97;;
74528;SDS011;63009;52.584;5.932;2022-11-20T01:09:05;19.42;;;9.02;;
74528;SDS011;63009;52.584;5.932;2022-11-20T01:11:34;20.67;;;10.57;;
74528;SDS011;63009;52.584;5.932;2022-11-20T01:14:01;20.50;;;10.32;;
74528;SDS011;63009;52.584;5.932;2022-11-20T01:16:32;22.67;;;10.35;;
74528;SDS011;63009;52.584;5.932;2022-11-20T01:19:00;18.20;;;9.18;;
74528;SDS011;63009;52.584;5.932;2022-11-20T01:21:31;21.63;;;10.85;;
74528;SDS011;63009;52.584;5.932;2022-11-20T01:23:59;19.90;;;10.07;;
74528;SDS011;63009;52.584;5.932;2022-11-20T01:26:26;20.33;;;8.95;;
74528;SDS011;63009;52.584;5.932;2022-11-20T01:28:59;18.23;;;9.27;;
74528;SDS011;63009;52.584;5.932;2022-11-20T01:31:26;20.70;;;9.23;;
74528;SDS011;63009;52.584;5.932;2022-11-20T01:33:54;21.63;;;10.00;;
74528;SDS011;63009;52.584;5.932;2022-11-20T01:36:21;17.95;;;9.70;;
74528;SDS011;63009;52.584;5.932;2022-11-20T01:38:48;20.42;;;7.97;;
74528;SDS011;63009;52.584;5.932;2022-11-20T01:41:18;18.00;;;8.23;;
74528;SDS011;63009;52.584;5.932;2022-11-20T01:44:03;17.73;;;8.68;;
74528;SDS011;63009;52.584;5.932;2022-11-20T01:46:33;18.67;;;8.18;;
74528;SDS011;63009;52.584;5.932;2022-11-20T01:49:02;17.17;;;8.88;;
74528;SDS011;63009;52.584;5.932;2022-11-20T01:51:33;19.42;;;9.23;;
74528;SDS011;63009;52.584;5.932;2022-11-20T01:54:05;18.08;;;8.55;;
74528;SDS011;63009;52.584;5.932;2022-11-20T01:56:35;21.20;;;8.48;;
74528;SDS011;63009;52.584;5.932;2022-11-20T01:59:03;17.88;;;8.07;;
74528;SDS011;63009;52.584;5.932;2022-11-20T02:01:31;23.48;;;9.77;;
74528;SDS011;63009;52.584;5.932;2022-11-20T02:03:57;19.67;;;10.40;;
74528;SDS011;63009;52.584;5.932;2022-11-20T02:06:25;20.98;;;9.45;;
74528;SDS011;63009;52.584;5.932;2022-11-20T02:08:54;19.02;;;10.18;;
74528;SDS011;63009;52.584;5.932;2022-11-20T02:11:20;20.17;;;9.02;;
74528;SDS011;63009;52.584;5.932;2022-11-20T02:13:45;17.80;;;8.68;;
74528;SDS011;63009;52.584;5.932;2022-11-20T02:16:13;17.55;;;8.10;;
74528;SDS011;63009;52.584;5.932;2022-11-20T02:18:41;19.77;;;7.85;;
74528;SDS011;63009;52.584;5.932;2022-11-20T02:21:16;19.83;;;8.82;;
74528;SDS011;63009;52.584;5.932;2022-11-20T02:26:25;16.02;;;8.10;;
74528;SDS011;63009;52.584;5.932;2022-11-20T02:28:52;17.00;;;7.30;;
74528;SDS011;63009;52.584;5.932;2022-11-20T02:31:19;16.17;;;8.57;;
74528;SDS011;63009;52.584;5.932;2022-11-20T02:33:44;20.73;;;8.48;;
74528;SDS011;63009;52.584;5.932;2022-11-20T02:36:10;19.77;;;9.27;;
74528;SDS011;63009;52.584;5.932;2022-11-20T02:38:39;17.42;;;8.05;;
74528;SDS011;63009;52.584;5.932;2022-11-20T02:41:04;15.52;;;7.63;;
74528;SDS011;63009;52.584;5.932;2022-11-20T02:43:30;19.70;;;8.40;;
74528;SDS011;63009;52.584;5.932;2022-11-20T02:45:55;17.90;;;9.43;;
74528;SDS011;63009;52.584;5.932;2022-11-20T02:48:20;16.67;;;7.57;;
74528;SDS011;63009;52.584;5.932;2022-11-20T02:50:46;18.77;;;8.90;;
74528;SDS011;63009;52.584;5.932;2022-11-20T02:53:11;17.20;;;7.93;;
74528;SDS011;63009;52.584;5.932;2022-11-20T02:55:36;17.95;;;8.63;;
74528;SDS011;63009;52.584;5.932;2022-11-20T02:58:02;18.48;;;9.50;;
74528;SDS011;63009;52.584;5.932;2022-11-20T03:00:27;17.00;;;8.48;;
74528;SDS011;63009;52.584;5.932;2022-11-20T03:02:53;17.88;;;8.38;;
74528;SDS011;63009;52.584;5.932;2022-11-20T03:05:18;16.90;;;8.13;;
74528;SDS011;63009;52.584;5.932;2022-11-20T03:07:43;19.10;;;8.27;;
74528;SDS011;63009;52.584;5.932;2022-11-20T03:10:09;15.93;;;7.77;;
74528;SDS011;63009;52.584;5.932;2022-11-20T03:12:34;17.83;;;8.00;;
74528;SDS011;63009;52.584;5.932;2022-11-20T03:14:59;16.80;;;7.70;;
74528;SDS011;63009;52.584;5.932;2022-11-20T03:17:24;16.30;;;7.17;;
74528;SDS011;63009;52.584;5.932;2022-11-20T03:19:50;16.53;;;7.40;;
74528;SDS011;63009;52.584;5.932;2022-11-20T03:22:15;18.70;;;7.67;;
74528;SDS011;63009;52.584;5.932;2022-11-20T03:24:40;16.00;;;7.67;;
74528;SDS011;63009;52.584;5.932;2022-11-20T03:27:06;19.05;;;8.27;;
74528;SDS011;63009;52.584;5.932;2022-11-20T03:29:31;17.13;;;8.30;;
74528;SDS011;63009;52.584;5.932;2022-11-20T03:31:57;17.02;;;7.68;;
74528;SDS011;63009;52.584;5.932;2022-11-20T03:34:22;16.13;;;8.60;;
74528;SDS011;63009;52.584;5.932;2022-11-20T03:36:48;18.83;;;8.07;;
74528;SDS011;63009;52.584;5.932;2022-11-20T03:39:13;19.43;;;7.57;;
74528;SDS011;63009;52.584;5.932;2022-11-20T03:41:40;19.43;;;7.63;;
74528;SDS011;63009;52.584;5.932;2022-11-20T03:44:07;17.63;;;8.52;;
74528;SDS011;63009;52.584;5.932;2022-11-20T03:46:34;19.63;;;9.10;;
74528;SDS011;63009;52.584;5.932;2022-11-20T03:49:00;21.13;;;10.63;;
74528;SDS011;63009;52.584;5.932;2022-11-20T03:51:26;22.50;;;10.00;;
74528;SDS011;63009;52.584;5.932;2022-11-20T03:53:54;24.73;;;11.45;;
74528;SDS011;63009;52.584;5.932;2022-11-20T03:56:24;22.67;;;10.75;;
74528;SDS011;63009;52.584;5.932;2022-11-20T03:58:51;20.60;;;9.95;;
74528;SDS011;63009;52.584;5.932;2022-11-20T04:01:18;24.37;;;11.77;;
74528;SDS011;63009;52.584;5.932;2022-11-20T04:03:46;20.75;;;9.75;;
74528;SDS011;63009;52.584;5.932;2022-11-20T04:06:13;20.45;;;10.05;;
74528;SDS011;63009;52.584;5.932;2022-11-20T04:08:46;22.02;;;9.75;;
74528;SDS011;63009;52.584;5.932;2022-11-20T04:11:16;19.83;;;9.35;;
74528;SDS011;63009;52.584;5.932;2022-11-20T04:13:56;16.67;;;8.75;;
74528;SDS011;63009;52.584;5.932;2022-11-20T04:16:23;20.50;;;10.65;;
74528;SDS011;63009;52.584;5.932;2022-11-20T04:18:53;21.20;;;10.05;;
74528;SDS011;63009;52.584;5.932;2022-11-20T04:21:21;24.60;;;10.77;;
74528;SDS011;63009;52.584;5.932;2022-11-20T04:23:47;21.63;;;10.05;;
74528;SDS011;63009;52.584;5.932;2022-11-20T04:26:13;21.60;;;10.05;;
74528;SDS011;63009;52.584;5.932;2022-11-20T04:28:38;23.37;;;10.07;;
74528;SDS011;63009;52.584;5.932;2022-11-20T04:31:05;20.65;;;10.90;;
74528;SDS011;63009;52.584;5.932;2022-11-20T04:33:38;19.83;;;9.18;;
74528;SDS011;63009;52.584;5.932;2022-11-20T04:36:10;21.92;;;9.23;;
74528;SDS011;63009;52.584;5.932;2022-11-20T04:38:37;19.85;;;8.65;;
74528;SDS011;63009;52.584;5.932;2022-11-20T04:41:04;18.88;;;8.48;;
74528;SDS011;63009;52.584;5.932;2022-11-20T04:43:31;20.88;;;10.40;;
74528;SDS011;63009;52.584;5.932;2022-11-20T04:45:57;20.65;;;9.40;;
74528;SDS011;63009;52.584;5.932;2022-11-20T04:48:23;18.90;;;8.57;;
74528;SDS011;63009;52.584;5.932;2022-11-20T04:50:50;17.70;;;8.70;;
74528;SDS011;63009;52.584;5.932;2022-11-20T04:53:16;19.38;;;9.00;;
74528;SDS011;63009;52.584;5.932;2022-11-20T04:55:42;21.60;;;9.35;;
74528;SDS011;63009;52.584;5.932;2022-11-20T04:58:07;20.52;;;9.50;;
74528;SDS011;63009;52.584;5.932;2022-11-20T05:00:32;19.50;;;9.43;;
74528;SDS011;63009;52.584;5.932;2022-11-20T05:02:58;17.85;;;9.57;;
74528;SDS011;63009;52.584;5.932;2022-11-20T05:05:23;22.13;;;9.13;;
74528;SDS011;63009;52.584;5.932;2022-11-20T05:07:48;20.10;;;9.17;;
74528;SDS011;63009;52.584;5.932;2022-11-20T05:10:14;19.02;;;9.52;;
74528;SDS011;63009;52.584;5.932;2022-11-20T05:12:39;17.83;;;8.63;;
74528;SDS011;63009;52.584;5.932;2022-11-20T05:15:05;21.13;;;9.73;;
74528;SDS011;63009;52.584;5.932;2022-11-20T05:17:30;19.15;;;9.43;;
74528;SDS011;63009;52.584;5.932;2022-11-20T05:19:55;16.50;;;8.23;;
74528;SDS011;63009;52.584;5.932;2022-11-20T05:22:21;16.80;;;8.27;;
74528;SDS011;63009;52.584;5.932;2022-11-20T05:24:46;17.77;;;7.97;;
74528;SDS011;63009;52.584;5.932;2022-11-20T05:27:11;20.50;;;8.03;;
74528;SDS011;63009;52.584;5.932;2022-11-20T05:29:36;21.03;;;9.13;;
74528;SDS011;63009;52.584;5.932;2022-11-20T05:32:02;17.13;;;8.13;;
74528;SDS011;63009;52.584;5.932;2022-11-20T05:34:27;20.00;;;7.68;;
74528;SDS011;63009;52.584;5.932;2022-11-20T05:36:52;19.13;;;8.67;;
74528;SDS011;63009;52.584;5.932;2022-11-20T05:39:18;19.17;;;7.73;;
74528;SDS011;63009;52.584;5.932;2022-11-20T05:41:43;17.93;;;7.63;;
74528;SDS011;63009;52.584;5.932;2022-11-20T05:44:13;18.97;;;8.77;;
74528;SDS011;63009;52.584;5.932;2022-11-20T05:46:38;19.95;;;8.45;;
74528;SDS011;63009;52.584;5.932;2022-11-20T05:49:03;21.10;;;9.98;;
74528;SDS011;63009;52.584;5.932;2022-11-20T05:51:28;20.70;;;9.47;;
74528;SDS011;63009;52.584;5.932;2022-11-20T05:53:56;20.70;;;9.37;;
74528;SDS011;63009;52.584;5.932;2022-11-20T05:56:22;20.48;;;9.90;;
74528;SDS011;63009;52.584;5.932;2022-11-20T05:58:48;20.85;;;9.43;;
74528;SDS011;63009;52.584;5.932;2022-11-20T06:03:44;19.90;;;9.15;;
74528;SDS011;63009;52.584;5.932;2022-11-20T06:06:13;19.83;;;8.63;;
74528;SDS011;63009;52.584;5.932;2022-11-20T06:08:39;19.48;;;8.23;;
74528;SDS011;63009;52.584;5.932;2022-11-20T06:11:05;18.98;;;8.85;;
74528;SDS011;63009;52.584;5.932;2022-11-20T06:13:35;18.20;;;8.23;;
74528;SDS011;63009;52.584;5.932;2022-11-20T06:16:01;19.85;;;9.60;;
74528;SDS011;63009;52.584;5.932;2022-11-20T06:18:27;18.80;;;8.70;;
74528;SDS011;63009;52.584;5.932;2022-11-20T06:21:26;17.35;;;8.63;;
74528;SDS011;63009;52.584;5.932;2022-11-20T06:23:46;18.48;;;8.45;;
74528;SDS011;63009;52.584;5.932;2022-11-20T06:26:15;17.15;;;8.43;;
74528;SDS011;63009;52.584;5.932;2022-11-20T06:28:43;18.08;;;8.57;;
74528;SDS011;63009;52.584;5.932;2022-11-20T06:31:09;17.85;;;6.93;;
74528;SDS011;63009;52.584;5.932;2022-11-20T06:33:36;17.15;;;8.80;;
74528;SDS011;63009;52.584;5.932;2022-11-20T06:36:02;18.40;;;7.63;;
74528;SDS011;63009;52.584;5.932;2022-11-20T06:38:29;18.38;;;8.00;;
74528;SDS011;63009;52.584;5.932;2022-11-20T06:40:54;17.65;;;8.30;;
74528;SDS011;63009;52.584;5.932;2022-11-20T06:43:20;17.70;;;8.27;;
74528;SDS011;63009;52.584;5.932;2022-11-20T06:45:50;19.23;;;7.90;;
74528;SDS011;63009;52.584;5.932;2022-11-20T06:48:17;19.63;;;8.75;;
74528;SDS011;63009;52.584;5.932;2022-11-20T06:50:42;16.60;;;8.20;;
74528;SDS011;63009;52.584;5.932;2022-11-20T06:53:07;16.80;;;7.27;;
74528;SDS011;63009;52.584;5.932;2022-11-20T06:55:32;16.07;;;7.90;;
74528;SDS011;63009;52.584;5.932;2022-11-20T06:57:58;16.93;;;8.10;;
74528;SDS011;63009;52.584;5.932;2022-11-20T07:00:23;18.63;;;7.37;;
74528;SDS011;63009;52.584;5.932;2022-11-20T07:02:48;17.63;;;7.78;;
74528;SDS011;63009;52.584;5.932;2022-11-20T07:05:14;14.65;;;7.32;;
74528;SDS011;63009;52.584;5.932;2022-11-20T07:07:40;17.63;;;7.82;;
74528;SDS011;63009;52.584;5.932;2022-11-20T07:10:05;13.90;;;6.73;;
74528;SDS011;63009;52.584;5.932;2022-11-20T07:12:31;19.33;;;8.10;;
74528;SDS011;63009;52.584;5.932;2022-11-20T07:14:56;17.73;;;6.72;;
74528;SDS011;63009;52.584;5.932;2022-11-20T07:17:22;18.38;;;8.40;;
74528;SDS011;63009;52.584;5.932;2022-11-20T07:19:47;21.30;;;10.35;;
74528;SDS011;63009;52.584;5.932;2022-11-20T07:22:12;19.90;;;9.23;;
74528;SDS011;63009;52.584;5.932;2022-11-20T07:24:38;25.55;;;11.10;;
74528;SDS011;63009;52.584;5.932;2022-11-20T07:27:03;20.48;;;10.70;;
74528;SDS011;63009;52.584;5.932;2022-11-20T07:29:29;21.90;;;10.25;;
74528;SDS011;63009;52.584;5.932;2022-11-20T07:31:54;22.00;;;11.40;;
74528;SDS011;63009;52.584;5.932;2022-11-20T07:34:21;23.13;;;11.55;;
74528;SDS011;63009;52.584;5.932;2022-11-20T07:36:46;23.13;;;10.45;;
74528;SDS011;63009;52.584;5.932;2022-11-20T07:39:11;17.53;;;8.67;;
74528;SDS011;63009;52.584;5.932;2022-11-20T07:41:37;17.20;;;9.00;;
74528;SDS011;63009;52.584;5.932;2022-11-20T07:44:02;18.13;;;8.40;;
74528;SDS011;63009;52.584;5.932;2022-11-20T07:46:27;19.75;;;9.00;;
74528;SDS011;63009;52.584;5.932;2022-11-20T07:48:52;17.53;;;7.90;;
74528;SDS011;63009;52.584;5.932;2022-11-20T07:51:18;19.03;;;9.13;;
74528;SDS011;63009;52.584;5.932;2022-11-20T07:53:43;16.40;;;7.60;;
74528;SDS011;63009;52.584;5.932;2022-11-20T07:56:08;16.30;;;7.63;;
74528;SDS011;63009;52.584;5.932;2022-11-20T07:58:34;19.05;;;7.53;;
74528;SDS011;63009;52.584;5.932;2022-11-20T08:01:03;18.10;;;8.30;;
74528;SDS011;63009;52.584;5.932;2022-11-20T08:03:29;17.85;;;8.10;;
74528;SDS011;63009;52.584;5.932;2022-11-20T08:05:57;17.07;;;8.40;;
74528;SDS011;63009;52.584;5.932;2022-11-20T08:08:24;15.38;;;8.40;;
74528;SDS011;63009;52.584;5.932;2022-11-20T08:10:49;17.90;;;7.33;;
74528;SDS011;63009;52.584;5.932;2022-11-20T08:13:15;21.20;;;8.32;;
74528;SDS011;63009;52.584;5.932;2022-11-20T08:15:58;18.38;;;8.25;;
74528;SDS011;63009;52.584;5.932;2022-11-20T08:18:23;18.63;;;9.10;;
74528;SDS011;63009;52.584;5.932;2022-11-20T08:20:49;23.57;;;11.03;;
74528;SDS011;63009;52.584;5.932;2022-11-20T08:23:14;18.70;;;9.40;;
74528;SDS011;63009;52.584;5.932;2022-11-20T08:25:39;25.13;;;12.13;;
74528;SDS011;63009;52.584;5.932;2022-11-20T08:28:05;24.02;;;12.98;;
74528;SDS011;63009;52.584;5.932;2022-11-20T08:30:33;20.00;;;11.45;;
74528;SDS011;63009;52.584;5.932;2022-11-20T08:33:03;29.27;;;15.50;;
74528;SDS011;63009;52.584;5.932;2022-11-20T08:35:33;24.17;;;12.85;;
74528;SDS011;63009;52.584;5.932;2022-11-20T08:38:00;32.40;;;16.42;;
74528;SDS011;63009;52.584;5.932;2022-11-20T08:40:26;41.92;;;18.85;;
74528;SDS011;63009;52.584;5.932;2022-11-20T08:42:51;33.87;;;16.37;;
74528;SDS011;63009;52.584;5.932;2022-11-20T08:45:17;29.17;;;14.02;;
74528;SDS011;63009;52.584;5.932;2022-11-20T08:47:44;20.90;;;10.57;;
74528;SDS011;63009;52.584;5.932;2022-11-20T08:50:10;18.98;;;10.07;;
74528;SDS011;63009;52.584;5.932;2022-11-20T08:52:37;15.98;;;8.52;;
74528;SDS011;63009;52.584;5.932;2022-11-20T08:55:03;18.73;;;9.05;;
74528;SDS011;63009;52.584;5.932;2022-11-20T08:57:31;18.83;;;8.82;;
74528;SDS011;63009;52.584;5.932;2022-11-20T08:59:57;16.05;;;8.38;;
74528;SDS011;63009;52.584;5.932;2022-11-20T09:02:22;18.53;;;8.63;;
74528;SDS011;63009;52.584;5.932;2022-11-20T09:04:47;18.83;;;8.77;;
74528;SDS011;63009;52.584;5.932;2022-11-20T09:07:12;19.47;;;9.50;;
74528;SDS011;63009;52.584;5.932;2022-11-20T09:09:38;23.70;;;11.25;;
74528;SDS011;63009;52.584;5.932;2022-11-20T09:12:03;21.40;;;11.43;;
74528;SDS011;63009;52.584;5.932;2022-11-20T09:14:29;18.55;;;8.88;;
74528;SDS011;63009;52.584;5.932;2022-11-20T09:16:55;18.35;;;9.60;;
74528;SDS011;63009;52.584;5.932;2022-11-20T09:19:21;18.63;;;9.85;;
74528;SDS011;63009;52.584;5.932;2022-11-20T09:21:46;24.08;;;10.40;;
74528;SDS011;63009;52.584;5.932;2022-11-20T09:24:11;22.73;;;11.33;;
74528;SDS011;63009;52.584;5.932;2022-11-20T09:26:37;19.03;;;10.40;;
74528;SDS011;63009;52.584;5.932;2022-11-20T09:29:02;18.40;;;9.43;;
74528;SDS011;63009;52.584;5.932;2022-11-20T09:31:27;19.90;;;11.83;;
74528;SDS011;63009;52.584;5.932;2022-11-20T09:33:52;18.97;;;7.87;;
74528;SDS011;63009;52.584;5.932;2022-11-20T09:36:18;15.82;;;8.95;;
74528;SDS011;63009;52.584;5.932;2022-11-20T09:38:46;16.52;;;9.25;;
74528;SDS011;63009;52.584;5.932;2022-11-20T09:54:29;14.98;;;6.90;;
74528;SDS011;63009;52.584;5.932;2022-11-20T09:57:03;22.15;;;12.15;;
74528;SDS011;63009;52.584;5.932;2022-11-20T09:59:42;18.35;;;9.75;;
74528;SDS011;63009;52.584;5.932;2022-11-20T10:02:25;25.67;;;18.40;;
74528;SDS011;63009;52.584;5.932;2022-11-20T10:05:04;17.67;;;10.07;;
74528;SDS011;63009;52.584;5.932;2022-11-20T10:07:53;20.13;;;10.10;;
74528;SDS011;63009;52.584;5.932;2022-11-20T10:15:58;19.20;;;9.95;;
74528;SDS011;63009;52.584;5.932;2022-11-20T10:18:51;18.50;;;10.23;;
74528;SDS011;63009;52.584;5.932;2022-11-20T10:21:35;19.30;;;11.30;;
74528;SDS011;63009;52.584;5.932;2022-11-20T10:24:23;21.55;;;12.13;;
74528;SDS011;63009;52.584;5.932;2022-11-20T10:27:29;20.50;;;10.30;;
74528;SDS011;63009;52.584;5.932;2022-11-20T10:30:01;17.80;;;10.30;;
74528;SDS011;63009;52.584;5.932;2022-11-20T10:32:36;17.77;;;10.60;;
74528;SDS011;63009;52.584;5.932;2022-11-20T10:35:05;23.30;;;11.13;;
74528;SDS011;63009;52.584;5.932;2022-11-20T10:37:33;22.50;;;11.20;;
74528;SDS011;63009;52.584;5.932;2022-11-20T10:40:17;18.80;;;9.10;;
74528;SDS011;63009;52.584;5.932;2022-11-20T10:42:44;17.52;;;10.02;;
74528;SDS011;63009;52.584;5.932;2022-11-20T10:50:40;17.70;;;9.70;;
74528;SDS011;63009;52.584;5.932;2022-11-20T10:53:38;17.00;;;10.18;;
74528;SDS011;63009;52.584;5.932;2022-11-20T10:56:15;16.73;;;8.65;;
74528;SDS011;63009;52.584;5.932;2022-11-20T10:58:59;15.10;;;8.18;;
74528;SDS011;63009;52.584;5.932;2022-11-20T11:01:39;16.33;;;7.57;;
74528;SDS011;63009;52.584;5.932;2022-11-20T11:04:50;13.65;;;7.05;;
74528;SDS011;63009;52.584;5.932;2022-11-20T11:09:35;17.58;;;8.13;;
74528;SDS011;63009;52.584;5.932;2022-11-20T11:12:08;14.43;;;7.80;;
74528;SDS011;63009;52.584;5.932;2022-11-20T11:14:47;15.25;;;6.80;;
74528;SDS011;63009;52.584;5.932;2022-11-20T11:20:01;13.48;;;7.35;;
74528;SDS011;63009;52.584;5.932;2022-11-20T11:22:32;14.20;;;7.05;;
74528;SDS011;63009;52.584;5.932;2022-11-20T11:24:59;14.73;;;7.53;;
74528;SDS011;63009;52.584;5.932;2022-11-20T11:27:25;14.30;;;7.45;;
74528;SDS011;63009;52.584;5.932;2022-11-20T11:29:50;15.63;;;7.50;;
74528;SDS011;63009;52.584;5.932;2022-11-20T11:32:28;14.82;;;7.32;;
74528;SDS011;63009;52.584;5.932;2022-11-20T11:35:00;17.13;;;8.90;;
74528;SDS011;63009;52.584;5.932;2022-11-20T11:37:29;14.27;;;6.68;;
74528;SDS011;63009;52.584;5.932;2022-11-20T11:39:59;16.40;;;8.15;;
74528;SDS011;63009;52.584;5.932;2022-11-20T11:42:24;18.37;;;8.80;;
74528;SDS011;63009;52.584;5.932;2022-11-20T11:44:50;17.13;;;8.47;;
74528;SDS011;63009;52.584;5.932;2022-11-20T11:47:32;15.60;;;7.55;;
74528;SDS011;63009;52.584;5.932;2022-11-20T11:55:29;15.73;;;7.85;;
74528;SDS011;63009;52.584;5.932;2022-11-20T11:58:02;18.23;;;10.15;;
74528;SDS011;63009;52.584;5.932;2022-11-20T12:00:35;19.00;;;10.52;;
74528;SDS011;63009;52.584;5.932;2022-11-20T12:03:16;17.25;;;9.23;;
74528;SDS011;63009;52.584;5.932;2022-11-20T12:05:47;18.17;;;8.88;;
74528;SDS011;63009;52.584;5.932;2022-11-20T12:08:18;16.42;;;8.55;;
74528;SDS011;63009;52.584;5.932;2022-11-20T12:11:05;15.00;;;8.48;;
74528;SDS011;63009;52.584;5.932;2022-11-20T12:16:11;17.30;;;9.50;;
74528;SDS011;63009;52.584;5.932;2022-11-20T12:18:39;17.60;;;9.57;;
74528;SDS011;63009;52.584;5.932;2022-11-20T12:26:41;19.65;;;10.00;;
74528;SDS011;63009;52.584;5.932;2022-11-20T12:31:54;22.00;;;10.57;;
74528;SDS011;63009;52.584;5.932;2022-11-20T12:43:18;19.42;;;11.63;;
74528;SDS011;63009;52.584;5.932;2022-11-20T12:46:14;22.30;;;13.70;;
74528;SDS011;63009;52.584;5.932;2022-11-20T12:51:29;28.17;;;16.15;;
74528;SDS011;63009;52.584;5.932;2022-11-20T12:54:38;28.65;;;15.15;;
74528;SDS011;63009;52.584;5.932;2022-11-20T13:02:44;19.98;;;9.68;;
74528;SDS011;63009;52.584;5.932;2022-11-20T13:05:18;18.83;;;9.85;;
74528;SDS011;63009;52.584;5.932;2022-11-20T13:07:49;19.85;;;12.27;;
74528;SDS011;63009;52.584;5.932;2022-11-20T13:10:31;17.83;;;9.32;;
74528;SDS011;63009;52.584;5.932;2022-11-20T13:13:14;18.27;;;9.85;;
74528;SDS011;63009;52.584;5.932;2022-11-20T13:15:56;20.10;;;10.25;;
74528;SDS011;63009;52.584;5.932;2022-11-20T13:18:27;17.65;;;9.50;;
74528;SDS011;63009;52.584;5.932;2022-11-20T13:20:58;17.17;;;8.43;;
74528;SDS011;63009;52.584;5.932;2022-11-20T13:23:24;17.27;;;9.60;;
74528;SDS011;63009;52.584;5.932;2022-11-20T13:25:52;16.98;;;9.18;;
74528;SDS011;63009;52.584;5.932;2022-11-20T13:28:28;15.45;;;8.52;;
74528;SDS011;63009;52.584;5.932;2022-11-20T13:30:55;18.02;;;8.73;;
74528;SDS011;63009;52.584;5.932;2022-11-20T13:33:23;18.08;;;9.88;;
74528;SDS011;63009;52.584;5.932;2022-11-20T13:36:00;16.88;;;8.98;;
74528;SDS011;63009;52.584;5.932;2022-11-20T13:38:27;16.52;;;9.00;;
74528;SDS011;63009;52.584;5.932;2022-11-20T13:43:35;17.07;;;8.00;;
74528;SDS011;63009;52.584;5.932;2022-11-20T13:46:04;15.85;;;8.05;;
74528;SDS011;63009;52.584;5.932;2022-11-20T13:48:41;16.98;;;8.57;;
74528;SDS011;63009;52.584;5.932;2022-11-20T13:59:44;20.20;;;11.05;;
74528;SDS011;63009;52.584;5.932;2022-11-20T14:02:19;26.33;;;20.55;;
74528;SDS011;63009;52.584;5.932;2022-11-20T14:04:51;30.65;;;23.02;;
74528;SDS011;63009;52.584;5.932;2022-11-20T14:07:18;34.40;;;20.27;;
74528;SDS011;63009;52.584;5.932;2022-11-20T14:12:18;26.40;;;16.30;;
74528;SDS011;63009;52.584;5.932;2022-11-20T14:14:48;20.65;;;12.20;;
74528;SDS011;63009;52.584;5.932;2022-11-20T14:17:20;19.45;;;11.48;;
74528;SDS011;63009;52.584;5.932;2022-11-20T14:19:48;18.33;;;11.43;;
74528;SDS011;63009;52.584;5.932;2022-11-20T14:22:17;18.73;;;12.18;;
74528;SDS011;63009;52.584;5.932;2022-11-20T14:24:45;17.60;;;10.13;;
74528;SDS011;63009;52.584;5.932;2022-11-20T14:27:20;15.68;;;9.27;;
74528;SDS011;63009;52.584;5.932;2022-11-20T14:29:47;17.30;;;9.52;;
74528;SDS011;63009;52.584;5.932;2022-11-20T14:32:15;22.75;;;11.20;;
74528;SDS011;63009;52.584;5.932;2022-11-20T14:34:43;31.60;;;13.55;;
74528;SDS011;63009;52.584;5.932;2022-11-20T14:37:12;25.17;;;13.88;;
74528;SDS011;63009;52.584;5.932;2022-11-20T14:39:42;17.45;;;9.93;;
74528;SDS011;63009;52.584;5.932;2022-11-20T14:42:17;17.77;;;9.13;;
74528;SDS011;63009;52.584;5.932;2022-11-20T14:44:45;17.73;;;9.48;;
74528;SDS011;63009;52.584;5.932;2022-11-20T14:47:12;16.52;;;8.38;;
74528;SDS011;63009;52.584;5.932;2022-11-20T14:49:40;16.10;;;9.63;;
74528;SDS011;63009;52.584;5.932;2022-11-20T14:52:13;15.38;;;9.52;;
74528;SDS011;63009;52.584;5.932;2022-11-20T14:54:44;16.23;;;8.85;;
74528;SDS011;63009;52.584;5.932;2022-11-20T14:57:20;17.95;;;9.48;;
74528;SDS011;63009;52.584;5.932;2022-11-20T14:59:45;19.17;;;9.02;;
74528;SDS011;63009;52.584;5.932;2022-11-20T15:02:11;17.23;;;10.03;;
74528;SDS011;63009;52.584;5.932;2022-11-20T15:04:44;16.48;;;9.18;;
74528;SDS011;63009;52.584;5.932;2022-11-20T15:07:24;15.60;;;9.13;;
74528;SDS011;63009;52.584;5.932;2022-11-20T15:10:00;16.30;;;9.43;;
74528;SDS011;63009;52.584;5.932;2022-11-20T15:12:26;17.48;;;10.82;;
74528;SDS011;63009;52.584;5.932;2022-11-20T15:14:51;16.02;;;8.80;;
74528;SDS011;63009;52.584;5.932;2022-11-20T15:17:16;19.23;;;9.85;;
74528;SDS011;63009;52.584;5.932;2022-11-20T15:19:42;17.00;;;9.47;;
74528;SDS011;63009;52.584;5.932;2022-11-20T15:22:09;17.97;;;9.07;;
74528;SDS011;63009;52.584;5.932;2022-11-20T15:24:38;16.67;;;9.10;;
74528;SDS011;63009;52.584;5.932;2022-11-20T15:27:03;19.30;;;9.43;;
74528;SDS011;63009;52.584;5.932;2022-11-20T15:29:28;16.80;;;9.63;;
74528;SDS011;63009;52.584;5.932;2022-11-20T15:31:53;17.52;;;9.25;;
74528;SDS011;63009;52.584;5.932;2022-11-20T15:34:19;17.75;;;10.68;;
74528;SDS011;63009;52.584;5.932;2022-11-20T15:36:45;20.67;;;13.73;;
74528;SDS011;63009;52.584;5.932;2022-11-20T15:39:10;26.07;;;19.37;;
74528;SDS011;63009;52.584;5.932;2022-11-20T15:41:36;17.92;;;13.00;;
74528;SDS011;63009;52.584;5.932;2022-11-20T15:44:03;18.73;;;10.38;;
74528;SDS011;63009;52.584;5.932;2022-11-20T15:46:32;22.90;;;11.85;;
74528;SDS011;63009;52.584;5.932;2022-11-20T15:49:10;19.95;;;11.57;;
74528;SDS011;63009;52.584;5.932;2022-11-20T15:51:38;20.48;;;12.80;;
74528;SDS011;63009;52.584;5.932;2022-11-20T15:54:10;18.60;;;10.68;;
74528;SDS011;63009;52.584;5.932;2022-11-20T15:56:37;19.83;;;11.13;;
74528;SDS011;63009;52.584;5.932;2022-11-20T15:59:02;19.73;;;11.05;;
74528;SDS011;63009;52.584;5.932;2022-11-20T16:01:28;19.98;;;10.43;;